sensor_id;sensor_type;location;lat;lon;timestamp;P1;durP1;ratioP1;P2;durP2;ratioP2
5333;SDS011;2689;50.954;7.116;2023-04-07T00:00:22;11.80;;;9.90;;
5333;SDS011;2689;50.954;7.116;2023-04-07T00:02:49;12.73;;;10.33;;
5333;SDS011;2689;50.954;7.116;2023-04-07T00:05:16;14.33;;;11.30;;
5333;SDS011;2689;50.954;7.116;2023-04-07T00:07:43;15.03;;;11.40;;
5333;SDS011;2689;50.954;7.116;2023-04-07T00:10:10;14.93;;;10.00;;
5333;SDS011;2689;50.954;7.116;2023-04-07T00:12:36;12.90;;;9.90;;
5333;SDS011;2689;50.954;7.116;2023-04-07T00:15:05;12.83;;;10.43;;
5333;SDS011;2689;50.954;7.116;2023-04-07T00:17:32;12.13;;;10.30;;
5333;SDS011;2689;50.954;7.116;2023-04-07T00:19:59;13.60;;;10.70;;
5333;SDS011;2689;50.954;7.116;2023-04-07T00:22:26;14.37;;;11.23;;
5333;SDS011;2689;50.954;7.116;2023-04-07T00:24:52;15.70;;;11.57;;
5333;SDS011;2689;50.954;7.116;2023-04-07T00:27:19;12.50;;;10.23;;
5333;SDS011;2689;50.954;7.116;2023-04-07T00:29:47;13.30;;;10.80;;
5333;SDS011;2689;50.954;7.116;2023-04-07T00:32:15;13.67;;;11.63;;
5333;SDS011;2689;50.954;7.116;2023-04-07T00:34:41;14.90;;;10.60;;
5333;SDS011;2689;50.954;7.116;2023-04-07T00:37:08;13.73;;;10.93;;
5333;SDS011;2689;50.954;7.116;2023-04-07T00:39:35;11.03;;;8.70;;
5333;SDS011;2689;50.954;7.116;2023-04-07T00:42:02;11.57;;;9.77;;
5333;SDS011;2689;50.954;7.116;2023-04-07T00:44:29;13.80;;;10.47;;
5333;SDS011;2689;50.954;7.116;2023-04-07T00:46:56;14.10;;;11.03;;
5333;SDS011;2689;50.954;7.116;2023-04-07T00:49:24;12.37;;;9.23;;
5333;SDS011;2689;50.954;7.116;2023-04-07T00:51:52;13.67;;;9.57;;
5333;SDS011;2689;50.954;7.116;2023-04-07T00:54:19;14.70;;;10.93;;
5333;SDS011;2689;50.954;7.116;2023-04-07T00:56:46;12.20;;;10.27;;
5333;SDS011;2689;50.954;7.116;2023-04-07T00:59:13;14.03;;;10.27;;
5333;SDS011;2689;50.954;7.116;2023-04-07T01:01:43;10.90;;;9.60;;
5333;SDS011;2689;50.954;7.116;2023-04-07T01:04:16;12.83;;;9.60;;
5333;SDS011;2689;50.954;7.116;2023-04-07T01:06:50;13.73;;;9.90;;
5333;SDS011;2689;50.954;7.116;2023-04-07T01:09:22;12.40;;;10.53;;
5333;SDS011;2689;50.954;7.116;2023-04-07T01:11:57;13.30;;;11.10;;
5333;SDS011;2689;50.954;7.116;2023-04-07T01:14:31;13.97;;;10.47;;
5333;SDS011;2689;50.954;7.116;2023-04-07T01:17:05;11.50;;;10.30;;
5333;SDS011;2689;50.954;7.116;2023-04-07T01:19:36;11.03;;;9.80;;
5333;SDS011;2689;50.954;7.116;2023-04-07T01:22:06;11.20;;;10.00;;
5333;SDS011;2689;50.954;7.116;2023-04-07T01:27:35;14.20;;;10.73;;
5333;SDS011;2689;50.954;7.116;2023-04-07T01:30:09;12.90;;;10.50;;
5333;SDS011;2689;50.954;7.116;2023-04-07T01:32:38;15.93;;;11.20;;
5333;SDS011;2689;50.954;7.116;2023-04-07T01:35:08;13.83;;;12.33;;
5333;SDS011;2689;50.954;7.116;2023-04-07T01:37:37;13.90;;;11.70;;
5333;SDS011;2689;50.954;7.116;2023-04-07T01:40:05;14.20;;;11.17;;
5333;SDS011;2689;50.954;7.116;2023-04-07T01:42:33;15.03;;;11.17;;
5333;SDS011;2689;50.954;7.116;2023-04-07T01:45:01;13.07;;;11.23;;
5333;SDS011;2689;50.954;7.116;2023-04-07T01:47:31;17.10;;;11.47;;
5333;SDS011;2689;50.954;7.116;2023-04-07T01:49:58;15.77;;;11.47;;
5333;SDS011;2689;50.954;7.116;2023-04-07T01:52:28;17.30;;;12.23;;
5333;SDS011;2689;50.954;7.116;2023-04-07T01:54:56;13.70;;;12.10;;
5333;SDS011;2689;50.954;7.116;2023-04-07T01:57:22;15.17;;;12.43;;
5333;SDS011;2689;50.954;7.116;2023-04-07T01:59:49;14.80;;;11.47;;
5333;SDS011;2689;50.954;7.116;2023-04-07T02:05:11;12.83;;;10.70;;
5333;SDS011;2689;50.954;7.116;2023-04-07T02:07:45;16.70;;;12.10;;
5333;SDS011;2689;50.954;7.116;2023-04-07T02:10:17;14.90;;;11.60;;
5333;SDS011;2689;50.954;7.116;2023-04-07T02:12:47;12.87;;;10.93;;
5333;SDS011;2689;50.954;7.116;2023-04-07T02:15:15;15.73;;;13.20;;
5333;SDS011;2689;50.954;7.116;2023-04-07T02:17:45;15.03;;;12.87;;
5333;SDS011;2689;50.954;7.116;2023-04-07T02:20:15;15.47;;;12.77;;
5333;SDS011;2689;50.954;7.116;2023-04-07T02:22:42;15.10;;;12.10;;
5333;SDS011;2689;50.954;7.116;2023-04-07T02:25:22;14.17;;;12.63;;
5333;SDS011;2689;50.954;7.116;2023-04-07T02:27:50;15.27;;;12.93;;
5333;SDS011;2689;50.954;7.116;2023-04-07T02:30:17;14.77;;;12.60;;
5333;SDS011;2689;50.954;7.116;2023-04-07T02:32:45;14.10;;;12.63;;
5333;SDS011;2689;50.954;7.116;2023-04-07T02:35:13;16.57;;;12.80;;
5333;SDS011;2689;50.954;7.116;2023-04-07T02:37:40;14.87;;;13.13;;
5333;SDS011;2689;50.954;7.116;2023-04-07T02:40:07;15.20;;;11.97;;
5333;SDS011;2689;50.954;7.116;2023-04-07T02:42:34;15.70;;;13.90;;
5333;SDS011;2689;50.954;7.116;2023-04-07T02:45:01;14.20;;;12.70;;
5333;SDS011;2689;50.954;7.116;2023-04-07T02:47:28;15.40;;;13.70;;
5333;SDS011;2689;50.954;7.116;2023-04-07T02:49:56;15.47;;;13.13;;
5333;SDS011;2689;50.954;7.116;2023-04-07T02:52:23;15.17;;;13.57;;
5333;SDS011;2689;50.954;7.116;2023-04-07T02:54:49;15.53;;;13.57;;
5333;SDS011;2689;50.954;7.116;2023-04-07T02:57:16;15.33;;;13.60;;
5333;SDS011;2689;50.954;7.116;2023-04-07T02:59:43;18.13;;;15.60;;
5333;SDS011;2689;50.954;7.116;2023-04-07T03:02:10;15.03;;;12.63;;
5333;SDS011;2689;50.954;7.116;2023-04-07T03:04:37;16.10;;;13.30;;
5333;SDS011;2689;50.954;7.116;2023-04-07T03:07:05;18.90;;;14.73;;
5333;SDS011;2689;50.954;7.116;2023-04-07T03:09:31;18.37;;;14.00;;
5333;SDS011;2689;50.954;7.116;2023-04-07T03:11:58;19.07;;;15.50;;
5333;SDS011;2689;50.954;7.116;2023-04-07T03:14:26;20.30;;;15.90;;
5333;SDS011;2689;50.954;7.116;2023-04-07T03:16:52;18.47;;;16.23;;
5333;SDS011;2689;50.954;7.116;2023-04-07T03:19:20;22.00;;;16.17;;
5333;SDS011;2689;50.954;7.116;2023-04-07T03:21:47;20.23;;;17.07;;
5333;SDS011;2689;50.954;7.116;2023-04-07T03:24:15;19.20;;;16.37;;
5333;SDS011;2689;50.954;7.116;2023-04-07T03:26:42;19.73;;;17.50;;
5333;SDS011;2689;50.954;7.116;2023-04-07T03:29:09;20.50;;;17.00;;
5333;SDS011;2689;50.954;7.116;2023-04-07T03:31:35;22.73;;;17.93;;
5333;SDS011;2689;50.954;7.116;2023-04-07T03:34:02;26.63;;;20.10;;
5333;SDS011;2689;50.954;7.116;2023-04-07T03:36:29;26.60;;;20.93;;
5333;SDS011;2689;50.954;7.116;2023-04-07T03:38:57;27.20;;;21.60;;
5333;SDS011;2689;50.954;7.116;2023-04-07T03:41:25;27.40;;;22.10;;
5333;SDS011;2689;50.954;7.116;2023-04-07T03:43:51;32.27;;;23.53;;
5333;SDS011;2689;50.954;7.116;2023-04-07T03:46:18;30.60;;;23.97;;
5333;SDS011;2689;50.954;7.116;2023-04-07T03:48:45;36.10;;;26.17;;
5333;SDS011;2689;50.954;7.116;2023-04-07T03:51:12;31.37;;;22.80;;
5333;SDS011;2689;50.954;7.116;2023-04-07T03:53:39;36.53;;;24.77;;
5333;SDS011;2689;50.954;7.116;2023-04-07T03:56:05;37.40;;;23.70;;
5333;SDS011;2689;50.954;7.116;2023-04-07T03:58:33;34.03;;;23.73;;
5333;SDS011;2689;50.954;7.116;2023-04-07T04:01:00;38.47;;;27.00;;
5333;SDS011;2689;50.954;7.116;2023-04-07T04:03:27;36.77;;;25.73;;
5333;SDS011;2689;50.954;7.116;2023-04-07T04:05:54;41.73;;;26.03;;
5333;SDS011;2689;50.954;7.116;2023-04-07T04:08:21;37.50;;;28.10;;
5333;SDS011;2689;50.954;7.116;2023-04-07T04:10:47;39.47;;;27.00;;
5333;SDS011;2689;50.954;7.116;2023-04-07T04:13:14;40.30;;;28.27;;
5333;SDS011;2689;50.954;7.116;2023-04-07T04:15:42;38.07;;;26.13;;
5333;SDS011;2689;50.954;7.116;2023-04-07T04:18:08;45.67;;;26.70;;
5333;SDS011;2689;50.954;7.116;2023-04-07T04:20:35;40.57;;;27.77;;
5333;SDS011;2689;50.954;7.116;2023-04-07T04:23:02;38.93;;;28.00;;
5333;SDS011;2689;50.954;7.116;2023-04-07T04:25:29;39.10;;;27.07;;
5333;SDS011;2689;50.954;7.116;2023-04-07T04:27:55;37.97;;;24.23;;
5333;SDS011;2689;50.954;7.116;2023-04-07T04:30:22;38.93;;;25.50;;
5333;SDS011;2689;50.954;7.116;2023-04-07T04:32:50;35.30;;;24.07;;
5333;SDS011;2689;50.954;7.116;2023-04-07T04:35:17;33.33;;;22.60;;
5333;SDS011;2689;50.954;7.116;2023-04-07T04:37:44;34.50;;;23.53;;
5333;SDS011;2689;50.954;7.116;2023-04-07T04:40:11;33.37;;;23.77;;
5333;SDS011;2689;50.954;7.116;2023-04-07T04:42:38;36.03;;;22.70;;
5333;SDS011;2689;50.954;7.116;2023-04-07T04:45:05;38.87;;;24.60;;
5333;SDS011;2689;50.954;7.116;2023-04-07T04:47:33;40.67;;;24.77;;
5333;SDS011;2689;50.954;7.116;2023-04-07T04:50:01;30.27;;;22.47;;
5333;SDS011;2689;50.954;7.116;2023-04-07T04:52:28;30.17;;;21.73;;
5333;SDS011;2689;50.954;7.116;2023-04-07T04:54:55;33.00;;;20.50;;
5333;SDS011;2689;50.954;7.116;2023-04-07T04:57:22;31.50;;;20.40;;
5333;SDS011;2689;50.954;7.116;2023-04-07T04:59:48;30.90;;;21.17;;
5333;SDS011;2689;50.954;7.116;2023-04-07T05:02:15;30.17;;;21.53;;
5333;SDS011;2689;50.954;7.116;2023-04-07T05:04:42;32.60;;;22.00;;
5333;SDS011;2689;50.954;7.116;2023-04-07T05:07:10;30.80;;;19.30;;
5333;SDS011;2689;50.954;7.116;2023-04-07T05:09:37;30.87;;;21.40;;
5333;SDS011;2689;50.954;7.116;2023-04-07T05:12:04;31.63;;;22.03;;
5333;SDS011;2689;50.954;7.116;2023-04-07T05:14:30;31.60;;;21.97;;
5333;SDS011;2689;50.954;7.116;2023-04-07T05:16:57;32.40;;;20.83;;
5333;SDS011;2689;50.954;7.116;2023-04-07T05:19:24;31.17;;;20.23;;
5333;SDS011;2689;50.954;7.116;2023-04-07T05:21:53;31.60;;;22.30;;
5333;SDS011;2689;50.954;7.116;2023-04-07T05:24:21;36.10;;;23.83;;
5333;SDS011;2689;50.954;7.116;2023-04-07T05:26:50;32.07;;;20.00;;
5333;SDS011;2689;50.954;7.116;2023-04-07T05:29:16;31.53;;;19.10;;
5333;SDS011;2689;50.954;7.116;2023-04-07T05:31:43;32.80;;;21.10;;
5333;SDS011;2689;50.954;7.116;2023-04-07T05:34:10;29.87;;;19.77;;
5333;SDS011;2689;50.954;7.116;2023-04-07T05:36:36;41.70;;;22.53;;
5333;SDS011;2689;50.954;7.116;2023-04-07T05:39:03;36.30;;;23.53;;
5333;SDS011;2689;50.954;7.116;2023-04-07T05:41:31;33.60;;;23.00;;
5333;SDS011;2689;50.954;7.116;2023-04-07T05:43:58;45.80;;;24.67;;
5333;SDS011;2689;50.954;7.116;2023-04-07T05:46:25;37.80;;;23.93;;
5333;SDS011;2689;50.954;7.116;2023-04-07T05:48:53;33.67;;;22.87;;
5333;SDS011;2689;50.954;7.116;2023-04-07T05:51:19;32.13;;;21.60;;
5333;SDS011;2689;50.954;7.116;2023-04-07T05:53:46;35.57;;;22.33;;
5333;SDS011;2689;50.954;7.116;2023-04-07T05:56:13;36.33;;;23.30;;
5333;SDS011;2689;50.954;7.116;2023-04-07T05:58:41;35.60;;;23.80;;
5333;SDS011;2689;50.954;7.116;2023-04-07T06:01:08;32.33;;;23.37;;
5333;SDS011;2689;50.954;7.116;2023-04-07T06:03:34;31.13;;;19.50;;
5333;SDS011;2689;50.954;7.116;2023-04-07T06:06:01;30.20;;;21.67;;
5333;SDS011;2689;50.954;7.116;2023-04-07T06:08:28;31.70;;;20.20;;
5333;SDS011;2689;50.954;7.116;2023-04-07T06:10:54;22.23;;;13.77;;
5333;SDS011;2689;50.954;7.116;2023-04-07T06:13:21;27.40;;;16.47;;
5333;SDS011;2689;50.954;7.116;2023-04-07T06:15:49;34.87;;;22.30;;
5333;SDS011;2689;50.954;7.116;2023-04-07T06:18:16;32.53;;;19.60;;
5333;SDS011;2689;50.954;7.116;2023-04-07T06:20:43;32.50;;;21.47;;
5333;SDS011;2689;50.954;7.116;2023-04-07T06:23:09;25.97;;;18.30;;
5333;SDS011;2689;50.954;7.116;2023-04-07T06:25:36;26.30;;;17.63;;
5333;SDS011;2689;50.954;7.116;2023-04-07T06:28:03;27.23;;;19.40;;
5333;SDS011;2689;50.954;7.116;2023-04-07T06:30:30;25.83;;;16.60;;
5333;SDS011;2689;50.954;7.116;2023-04-07T06:32:58;25.40;;;14.63;;
5333;SDS011;2689;50.954;7.116;2023-04-07T06:35:25;26.53;;;18.53;;
5333;SDS011;2689;50.954;7.116;2023-04-07T06:37:52;31.43;;;16.70;;
5333;SDS011;2689;50.954;7.116;2023-04-07T06:40:18;30.17;;;17.87;;
5333;SDS011;2689;50.954;7.116;2023-04-07T06:42:45;21.87;;;15.70;;
5333;SDS011;2689;50.954;7.116;2023-04-07T06:45:12;27.57;;;15.60;;
5333;SDS011;2689;50.954;7.116;2023-04-07T06:47:39;19.77;;;12.83;;
5333;SDS011;2689;50.954;7.116;2023-04-07T06:50:08;24.70;;;16.70;;
5333;SDS011;2689;50.954;7.116;2023-04-07T06:52:34;28.23;;;17.30;;
5333;SDS011;2689;50.954;7.116;2023-04-07T06:55:01;20.87;;;13.70;;
5333;SDS011;2689;50.954;7.116;2023-04-07T06:57:28;25.03;;;15.90;;
5333;SDS011;2689;50.954;7.116;2023-04-07T06:59:55;20.80;;;16.03;;
5333;SDS011;2689;50.954;7.116;2023-04-07T07:02:22;20.97;;;13.77;;
5333;SDS011;2689;50.954;7.116;2023-04-07T07:04:49;21.53;;;15.67;;
5333;SDS011;2689;50.954;7.116;2023-04-07T07:07:17;20.53;;;15.37;;
5333;SDS011;2689;50.954;7.116;2023-04-07T07:09:44;20.63;;;15.70;;
5333;SDS011;2689;50.954;7.116;2023-04-07T07:12:10;24.37;;;15.23;;
5333;SDS011;2689;50.954;7.116;2023-04-07T07:14:39;22.40;;;13.27;;
5333;SDS011;2689;50.954;7.116;2023-04-07T07:17:05;20.23;;;14.67;;
5333;SDS011;2689;50.954;7.116;2023-04-07T07:19:32;19.30;;;13.20;;
5333;SDS011;2689;50.954;7.116;2023-04-07T07:21:59;19.97;;;14.73;;
5333;SDS011;2689;50.954;7.116;2023-04-07T07:24:29;17.97;;;12.30;;
5333;SDS011;2689;50.954;7.116;2023-04-07T07:26:58;17.23;;;12.83;;
5333;SDS011;2689;50.954;7.116;2023-04-07T07:29:25;23.30;;;11.33;;
5333;SDS011;2689;50.954;7.116;2023-04-07T07:31:52;19.70;;;12.60;;
5333;SDS011;2689;50.954;7.116;2023-04-07T07:34:19;16.90;;;13.07;;
5333;SDS011;2689;50.954;7.116;2023-04-07T07:36:46;17.73;;;11.27;;
5333;SDS011;2689;50.954;7.116;2023-04-07T07:39:12;17.80;;;11.70;;
5333;SDS011;2689;50.954;7.116;2023-04-07T07:41:41;19.00;;;11.67;;
5333;SDS011;2689;50.954;7.116;2023-04-07T07:44:07;16.60;;;11.87;;
5333;SDS011;2689;50.954;7.116;2023-04-07T07:46:34;17.50;;;12.20;;
5333;SDS011;2689;50.954;7.116;2023-04-07T07:49:01;18.07;;;12.80;;
5333;SDS011;2689;50.954;7.116;2023-04-07T07:51:29;19.70;;;11.67;;
5333;SDS011;2689;50.954;7.116;2023-04-07T07:53:56;19.33;;;11.80;;
5333;SDS011;2689;50.954;7.116;2023-04-07T07:56:22;18.77;;;13.70;;
5333;SDS011;2689;50.954;7.116;2023-04-07T07:58:51;16.10;;;12.47;;
5333;SDS011;2689;50.954;7.116;2023-04-07T08:01:17;15.20;;;10.03;;
5333;SDS011;2689;50.954;7.116;2023-04-07T08:03:44;15.40;;;10.77;;
5333;SDS011;2689;50.954;7.116;2023-04-07T08:06:11;17.43;;;12.10;;
5333;SDS011;2689;50.954;7.116;2023-04-07T08:08:38;18.40;;;10.80;;
5333;SDS011;2689;50.954;7.116;2023-04-07T08:11:04;16.23;;;10.47;;
5333;SDS011;2689;50.954;7.116;2023-04-07T08:13:31;16.93;;;10.73;;
5333;SDS011;2689;50.954;7.116;2023-04-07T08:15:59;14.13;;;10.80;;
5333;SDS011;2689;50.954;7.116;2023-04-07T08:18:26;23.90;;;12.67;;
5333;SDS011;2689;50.954;7.116;2023-04-07T08:20:53;16.80;;;10.77;;
5333;SDS011;2689;50.954;7.116;2023-04-07T08:23:19;13.30;;;9.37;;
5333;SDS011;2689;50.954;7.116;2023-04-07T08:25:46;14.63;;;9.67;;
5333;SDS011;2689;50.954;7.116;2023-04-07T08:28:13;18.60;;;10.43;;
5333;SDS011;2689;50.954;7.116;2023-04-07T08:30:40;13.23;;;9.03;;
5333;SDS011;2689;50.954;7.116;2023-04-07T08:33:08;14.63;;;9.80;;
5333;SDS011;2689;50.954;7.116;2023-04-07T08:35:35;14.80;;;9.43;;
5333;SDS011;2689;50.954;7.116;2023-04-07T08:38:01;17.73;;;11.57;;
5333;SDS011;2689;50.954;7.116;2023-04-07T08:40:29;16.40;;;10.53;;
5333;SDS011;2689;50.954;7.116;2023-04-07T08:42:58;15.37;;;10.57;;
5333;SDS011;2689;50.954;7.116;2023-04-07T08:45:28;14.70;;;9.93;;
5333;SDS011;2689;50.954;7.116;2023-04-07T08:47:56;14.50;;;10.47;;
5333;SDS011;2689;50.954;7.116;2023-04-07T08:50:27;16.87;;;11.80;;
5333;SDS011;2689;50.954;7.116;2023-04-07T08:52:55;12.70;;;9.30;;
5333;SDS011;2689;50.954;7.116;2023-04-07T08:55:25;12.10;;;8.00;;
5333;SDS011;2689;50.954;7.116;2023-04-07T08:57:52;16.70;;;10.90;;
5333;SDS011;2689;50.954;7.116;2023-04-07T09:00:20;17.80;;;11.07;;
5333;SDS011;2689;50.954;7.116;2023-04-07T09:02:47;18.10;;;10.97;;
5333;SDS011;2689;50.954;7.116;2023-04-07T09:05:15;14.37;;;9.30;;
5333;SDS011;2689;50.954;7.116;2023-04-07T09:07:47;15.60;;;10.23;;
5333;SDS011;2689;50.954;7.116;2023-04-07T09:10:14;18.97;;;10.00;;
5333;SDS011;2689;50.954;7.116;2023-04-07T09:12:41;20.47;;;11.53;;
5333;SDS011;2689;50.954;7.116;2023-04-07T09:15:14;16.50;;;11.73;;
5333;SDS011;2689;50.954;7.116;2023-04-07T09:17:41;17.30;;;10.93;;
5333;SDS011;2689;50.954;7.116;2023-04-07T09:20:09;17.23;;;10.40;;
5333;SDS011;2689;50.954;7.116;2023-04-07T09:22:36;22.70;;;11.53;;
5333;SDS011;2689;50.954;7.116;2023-04-07T09:25:13;15.10;;;11.33;;
5333;SDS011;2689;50.954;7.116;2023-04-07T09:27:52;15.60;;;10.37;;
5333;SDS011;2689;50.954;7.116;2023-04-07T09:30:23;17.43;;;11.27;;
5333;SDS011;2689;50.954;7.116;2023-04-07T09:32:50;16.10;;;10.97;;
5333;SDS011;2689;50.954;7.116;2023-04-07T09:35:17;18.40;;;12.00;;
5333;SDS011;2689;50.954;7.116;2023-04-07T09:37:44;18.60;;;12.83;;
5333;SDS011;2689;50.954;7.116;2023-04-07T09:40:27;16.67;;;12.23;;
5333;SDS011;2689;50.954;7.116;2023-04-07T09:42:54;17.53;;;13.00;;
5333;SDS011;2689;50.954;7.116;2023-04-07T09:45:23;19.37;;;12.40;;
5333;SDS011;2689;50.954;7.116;2023-04-07T09:47:51;15.13;;;9.97;;
5333;SDS011;2689;50.954;7.116;2023-04-07T09:50:29;23.17;;;14.70;;
5333;SDS011;2689;50.954;7.116;2023-04-07T09:52:56;18.80;;;12.23;;
5333;SDS011;2689;50.954;7.116;2023-04-07T09:55:23;19.40;;;13.53;;
5333;SDS011;2689;50.954;7.116;2023-04-07T09:57:52;11.70;;;8.97;;
5333;SDS011;2689;50.954;7.116;2023-04-07T10:00:20;15.33;;;10.73;;
5333;SDS011;2689;50.954;7.116;2023-04-07T10:02:47;17.40;;;12.47;;
5333;SDS011;2689;50.954;7.116;2023-04-07T10:05:15;14.73;;;10.80;;
5333;SDS011;2689;50.954;7.116;2023-04-07T10:07:45;19.30;;;13.00;;
5333;SDS011;2689;50.954;7.116;2023-04-07T10:10:11;17.20;;;10.03;;
5333;SDS011;2689;50.954;7.116;2023-04-07T10:12:38;16.10;;;10.43;;
5333;SDS011;2689;50.954;7.116;2023-04-07T10:15:08;15.67;;;10.07;;
5333;SDS011;2689;50.954;7.116;2023-04-07T10:17:39;15.30;;;9.10;;
5333;SDS011;2689;50.954;7.116;2023-04-07T10:20:10;14.97;;;9.13;;
5333;SDS011;2689;50.954;7.116;2023-04-07T10:22:39;12.73;;;8.73;;
5333;SDS011;2689;50.954;7.116;2023-04-07T10:25:08;15.90;;;10.50;;
5333;SDS011;2689;50.954;7.116;2023-04-07T10:27:37;17.77;;;10.63;;
5333;SDS011;2689;50.954;7.116;2023-04-07T10:30:16;13.33;;;9.57;;
5333;SDS011;2689;50.954;7.116;2023-04-07T10:32:46;16.90;;;10.80;;
5333;SDS011;2689;50.954;7.116;2023-04-07T10:35:13;14.30;;;10.50;;
5333;SDS011;2689;50.954;7.116;2023-04-07T10:37:41;13.23;;;8.80;;
5333;SDS011;2689;50.954;7.116;2023-04-07T10:40:40;17.83;;;11.60;;
5333;SDS011;2689;50.954;7.116;2023-04-07T10:43:08;26.40;;;19.40;;
5333;SDS011;2689;50.954;7.116;2023-04-07T10:45:56;14.33;;;8.63;;
5333;SDS011;2689;50.954;7.116;2023-04-07T10:48:24;12.50;;;8.70;;
5333;SDS011;2689;50.954;7.116;2023-04-07T10:51:12;14.63;;;8.77;;
5333;SDS011;2689;50.954;7.116;2023-04-07T10:59:34;14.63;;;9.20;;
5333;SDS011;2689;50.954;7.116;2023-04-07T11:04:58;15.67;;;9.17;;
5333;SDS011;2689;50.954;7.116;2023-04-07T11:07:42;15.10;;;10.30;;
5333;SDS011;2689;50.954;7.116;2023-04-07T11:10:10;15.83;;;11.97;;
5333;SDS011;2689;50.954;7.116;2023-04-07T11:12:39;16.70;;;11.63;;
5333;SDS011;2689;50.954;7.116;2023-04-07T11:15:17;19.53;;;13.60;;
5333;SDS011;2689;50.954;7.116;2023-04-07T11:17:47;20.07;;;13.63;;
5333;SDS011;2689;50.954;7.116;2023-04-07T11:20:39;27.63;;;16.70;;
5333;SDS011;2689;50.954;7.116;2023-04-07T11:23:17;22.33;;;16.83;;
5333;SDS011;2689;50.954;7.116;2023-04-07T11:25:47;27.60;;;18.23;;
5333;SDS011;2689;50.954;7.116;2023-04-07T11:28:16;20.43;;;12.37;;
5333;SDS011;2689;50.954;7.116;2023-04-07T11:30:44;18.70;;;13.67;;
5333;SDS011;2689;50.954;7.116;2023-04-07T11:33:15;20.63;;;13.67;;
5333;SDS011;2689;50.954;7.116;2023-04-07T11:35:47;22.60;;;16.33;;
5333;SDS011;2689;50.954;7.116;2023-04-07T11:38:16;20.53;;;14.50;;
5333;SDS011;2689;50.954;7.116;2023-04-07T11:40:45;21.50;;;13.00;;
5333;SDS011;2689;50.954;7.116;2023-04-07T11:43:15;23.00;;;14.60;;
5333;SDS011;2689;50.954;7.116;2023-04-07T11:48:35;30.50;;;16.23;;
5333;SDS011;2689;50.954;7.116;2023-04-07T11:51:04;19.93;;;14.23;;
5333;SDS011;2689;50.954;7.116;2023-04-07T11:53:32;23.90;;;14.07;;
5333;SDS011;2689;50.954;7.116;2023-04-07T11:56:02;20.93;;;13.40;;
5333;SDS011;2689;50.954;7.116;2023-04-07T11:58:45;20.07;;;12.97;;
5333;SDS011;2689;50.954;7.116;2023-04-07T12:01:12;19.47;;;12.00;;
5333;SDS011;2689;50.954;7.116;2023-04-07T12:03:55;23.23;;;12.87;;
5333;SDS011;2689;50.954;7.116;2023-04-07T12:06:27;20.80;;;11.50;;
5333;SDS011;2689;50.954;7.116;2023-04-07T12:08:55;21.80;;;13.40;;
5333;SDS011;2689;50.954;7.116;2023-04-07T12:11:28;20.80;;;13.30;;
5333;SDS011;2689;50.954;7.116;2023-04-07T12:13:56;23.73;;;15.27;;
5333;SDS011;2689;50.954;7.116;2023-04-07T12:16:23;23.30;;;13.70;;
5333;SDS011;2689;50.954;7.116;2023-04-07T12:18:50;17.30;;;11.70;;
5333;SDS011;2689;50.954;7.116;2023-04-07T12:21:19;29.30;;;18.80;;
5333;SDS011;2689;50.954;7.116;2023-04-07T12:23:46;29.20;;;18.60;;
5333;SDS011;2689;50.954;7.116;2023-04-07T12:26:13;18.87;;;14.20;;
5333;SDS011;2689;50.954;7.116;2023-04-07T12:28:40;17.70;;;10.83;;
5333;SDS011;2689;50.954;7.116;2023-04-07T12:31:07;16.50;;;11.63;;
5333;SDS011;2689;50.954;7.116;2023-04-07T12:33:34;16.57;;;11.90;;
5333;SDS011;2689;50.954;7.116;2023-04-07T12:36:00;34.77;;;20.53;;
5333;SDS011;2689;50.954;7.116;2023-04-07T12:38:29;29.33;;;18.60;;
5333;SDS011;2689;50.954;7.116;2023-04-07T12:40:55;17.00;;;12.37;;
5333;SDS011;2689;50.954;7.116;2023-04-07T12:43:27;18.87;;;13.47;;
5333;SDS011;2689;50.954;7.116;2023-04-07T12:45:54;27.50;;;18.50;;
5333;SDS011;2689;50.954;7.116;2023-04-07T12:48:21;21.43;;;14.73;;
5333;SDS011;2689;50.954;7.116;2023-04-07T12:50:47;19.80;;;14.17;;
5333;SDS011;2689;50.954;7.116;2023-04-07T12:53:14;25.53;;;14.63;;
5333;SDS011;2689;50.954;7.116;2023-04-07T12:55:43;19.70;;;14.67;;
5333;SDS011;2689;50.954;7.116;2023-04-07T12:58:09;20.30;;;15.07;;
5333;SDS011;2689;50.954;7.116;2023-04-07T13:00:37;23.83;;;13.70;;
5333;SDS011;2689;50.954;7.116;2023-04-07T13:03:05;19.97;;;14.50;;
5333;SDS011;2689;50.954;7.116;2023-04-07T13:05:32;22.00;;;14.90;;
5333;SDS011;2689;50.954;7.116;2023-04-07T13:07:59;19.63;;;13.70;;
5333;SDS011;2689;50.954;7.116;2023-04-07T13:10:26;18.67;;;14.10;;
5333;SDS011;2689;50.954;7.116;2023-04-07T13:12:54;18.30;;;13.43;;
5333;SDS011;2689;50.954;7.116;2023-04-07T13:15:22;18.80;;;11.57;;
5333;SDS011;2689;50.954;7.116;2023-04-07T13:17:48;21.17;;;14.57;;
5333;SDS011;2689;50.954;7.116;2023-04-07T13:20:16;19.20;;;14.93;;
5333;SDS011;2689;50.954;7.116;2023-04-07T13:22:42;18.40;;;13.43;;
5333;SDS011;2689;50.954;7.116;2023-04-07T13:25:10;21.50;;;13.23;;
5333;SDS011;2689;50.954;7.116;2023-04-07T13:27:36;21.83;;;14.30;;
5333;SDS011;2689;50.954;7.116;2023-04-07T13:30:05;17.50;;;13.10;;
5333;SDS011;2689;50.954;7.116;2023-04-07T13:32:33;19.70;;;13.87;;
5333;SDS011;2689;50.954;7.116;2023-04-07T13:34:59;20.37;;;14.87;;
5333;SDS011;2689;50.954;7.116;2023-04-07T13:37:26;19.97;;;15.53;;
5333;SDS011;2689;50.954;7.116;2023-04-07T13:39:53;19.73;;;14.60;;
5333;SDS011;2689;50.954;7.116;2023-04-07T13:42:20;18.50;;;14.30;;
5333;SDS011;2689;50.954;7.116;2023-04-07T13:44:46;16.17;;;10.97;;
5333;SDS011;2689;50.954;7.116;2023-04-07T13:47:16;15.50;;;11.23;;
5333;SDS011;2689;50.954;7.116;2023-04-07T13:49:44;19.93;;;13.97;;
5333;SDS011;2689;50.954;7.116;2023-04-07T13:52:12;22.47;;;14.73;;
5333;SDS011;2689;50.954;7.116;2023-04-07T13:54:38;13.90;;;11.80;;
5333;SDS011;2689;50.954;7.116;2023-04-07T13:57:05;13.37;;;10.90;;
5333;SDS011;2689;50.954;7.116;2023-04-07T13:59:32;12.30;;;9.63;;
5333;SDS011;2689;50.954;7.116;2023-04-07T14:01:59;12.67;;;8.40;;
5333;SDS011;2689;50.954;7.116;2023-04-07T14:04:27;12.07;;;9.60;;
5333;SDS011;2689;50.954;7.116;2023-04-07T14:06:54;13.70;;;9.80;;
5333;SDS011;2689;50.954;7.116;2023-04-07T14:09:20;12.20;;;8.97;;
5333;SDS011;2689;50.954;7.116;2023-04-07T14:11:47;10.70;;;8.53;;
5333;SDS011;2689;50.954;7.116;2023-04-07T14:14:14;12.00;;;9.13;;
5333;SDS011;2689;50.954;7.116;2023-04-07T14:16:40;13.50;;;9.87;;
5333;SDS011;2689;50.954;7.116;2023-04-07T14:19:07;14.33;;;9.10;;
5333;SDS011;2689;50.954;7.116;2023-04-07T14:21:35;11.00;;;9.40;;
5333;SDS011;2689;50.954;7.116;2023-04-07T14:24:02;14.13;;;9.17;;
5333;SDS011;2689;50.954;7.116;2023-04-07T14:26:29;59.10;;;37.97;;
5333;SDS011;2689;50.954;7.116;2023-04-07T14:28:56;15.60;;;12.97;;
5333;SDS011;2689;50.954;7.116;2023-04-07T14:31:23;20.40;;;16.87;;
5333;SDS011;2689;50.954;7.116;2023-04-07T14:33:50;22.37;;;15.03;;
5333;SDS011;2689;50.954;7.116;2023-04-07T14:36:16;16.13;;;13.33;;
5333;SDS011;2689;50.954;7.116;2023-04-07T14:38:45;18.20;;;14.23;;
5333;SDS011;2689;50.954;7.116;2023-04-07T14:41:14;27.17;;;19.77;;
5333;SDS011;2689;50.954;7.116;2023-04-07T14:43:42;18.80;;;13.43;;
5333;SDS011;2689;50.954;7.116;2023-04-07T14:46:08;19.50;;;13.83;;
5333;SDS011;2689;50.954;7.116;2023-04-07T14:48:36;18.37;;;14.00;;
5333;SDS011;2689;50.954;7.116;2023-04-07T14:51:03;18.57;;;14.00;;
5333;SDS011;2689;50.954;7.116;2023-04-07T14:53:36;19.33;;;12.10;;
5333;SDS011;2689;50.954;7.116;2023-04-07T14:56:05;14.67;;;11.37;;
5333;SDS011;2689;50.954;7.116;2023-04-07T14:58:32;13.40;;;10.40;;
5333;SDS011;2689;50.954;7.116;2023-04-07T15:01:01;15.67;;;10.53;;
5333;SDS011;2689;50.954;7.116;2023-04-07T15:03:28;12.73;;;10.37;;
5333;SDS011;2689;50.954;7.116;2023-04-07T15:05:54;16.13;;;10.70;;
5333;SDS011;2689;50.954;7.116;2023-04-07T15:08:22;14.97;;;9.80;;
5333;SDS011;2689;50.954;7.116;2023-04-07T15:10:49;10.30;;;9.17;;
5333;SDS011;2689;50.954;7.116;2023-04-07T15:13:17;16.17;;;9.60;;